createdAt,value
2023-05-11T00:01:52.962Z,45.31
2023-05-11T00:04:22.738Z,44.49
2023-05-11T00:06:49.893Z,43.32
2023-05-11T00:09:16.805Z,43.36
2023-05-11T00:11:43.821Z,43.36
2023-05-11T00:14:10.899Z,43.01
2023-05-11T00:16:37.810Z,46.60
2023-05-11T00:19:04.803Z,47.70
2023-05-11T00:21:33.277Z,47.66
2023-05-11T00:24:02.093Z,47.75
2023-05-11T00:26:29.166Z,48.13
2023-05-11T00:28:59.025Z,48.77
2023-05-11T00:31:30.671Z,49.60
2023-05-11T00:34:00.542Z,49.94
2023-05-11T00:36:27.605Z,50.70
2023-05-11T00:38:54.564Z,50.84
2023-05-11T00:41:21.779Z,49.20
2023-05-11T00:43:48.932Z,48.13
2023-05-11T00:46:16.052Z,48.11
2023-05-11T00:48:43.694Z,48.20
2023-05-11T00:51:10.863Z,48.21
2023-05-11T00:53:38.304Z,47.88
2023-05-11T00:56:05.641Z,47.68
2023-05-11T00:58:33.410Z,46.94
2023-05-11T01:01:00.660Z,46.40
2023-05-11T01:03:28.006Z,46.34
2023-05-11T01:06:17.819Z,46.05
2023-05-11T01:08:50.564Z,45.90
2023-05-11T01:11:34.305Z,46.83
2023-05-11T01:14:07.375Z,47.20
2023-05-11T01:16:37.591Z,49.29
2023-05-11T01:19:35.512Z,50.78
2023-05-11T01:22:16.089Z,51.71
2023-05-11T01:25:01.868Z,52.08
2023-05-11T01:28:09.820Z,52.84
2023-05-11T01:30:39.811Z,53.21
2023-05-11T01:33:11.092Z,54.12
2023-05-11T01:35:45.929Z,54.98
2023-05-11T01:38:13.624Z,54.22
2023-05-11T01:40:42.828Z,54.93
2023-05-11T01:43:22.317Z,55.79
2023-05-11T01:45:51.509Z,55.79
2023-05-11T01:48:23.733Z,56.51
2023-05-11T01:50:51.546Z,56.20
2023-05-11T01:53:20.022Z,56.23
2023-05-11T01:55:47.959Z,56.34
2023-05-11T01:58:17.927Z,56.49
2023-05-11T02:00:45.600Z,56.33
2023-05-11T02:03:15.777Z,55.93
2023-05-11T02:05:45.722Z,55.46
2023-05-11T02:08:14.773Z,55.26
2023-05-11T02:10:48.906Z,55.26
2023-05-11T02:13:20.001Z,55.08
2023-05-11T02:15:48.115Z,55.33
2023-05-11T02:18:15.995Z,55.47
2023-05-11T02:20:45.729Z,54.96
2023-05-11T02:23:12.940Z,54.93
2023-05-11T02:25:41.004Z,55.13
2023-05-11T02:28:08.480Z,55.22
2023-05-11T02:30:41.302Z,55.03
2023-05-11T02:33:15.017Z,55.38
2023-05-11T02:35:43.554Z,55.53
2023-05-11T02:38:15.477Z,55.59
2023-05-11T02:40:47.086Z,56.07
2023-05-11T02:43:21.039Z,56.38
2023-05-11T02:45:58.908Z,56.70
2023-05-11T02:48:35.076Z,56.29
2023-05-11T02:51:02.993Z,56.80
2023-05-11T02:53:37.229Z,56.02
2023-05-11T02:56:06.508Z,55.87
2023-05-11T02:58:35.531Z,55.91
2023-05-11T03:01:17.492Z,56.25
2023-05-11T03:03:45.043Z,56.53
2023-05-11T03:06:15.669Z,55.46
2023-05-11T03:08:43.050Z,55.40
2023-05-11T03:11:11.272Z,55.29
2023-05-11T03:13:39.554Z,54.94
2023-05-11T03:16:09.895Z,54.75
2023-05-11T03:18:37.332Z,55.17
2023-05-11T03:21:05.641Z,54.74
2023-05-11T03:23:35.875Z,54.64
2023-05-11T03:26:04.515Z,54.58
2023-05-11T03:28:32.273Z,54.90
2023-05-11T03:31:02.708Z,54.97
2023-05-11T03:33:35.183Z,55.10
2023-05-11T03:36:03.947Z,55.05
2023-05-11T03:38:32.611Z,55.42
2023-05-11T03:41:01.509Z,55.63
2023-05-11T03:43:32.693Z,55.48
2023-05-11T03:46:00.887Z,55.10
2023-05-11T03:48:29.817Z,55.08
2023-05-11T03:50:57.162Z,54.56
2023-05-11T03:53:24.572Z,53.87
2023-05-11T03:55:53.009Z,53.06
2023-05-11T03:58:20.477Z,52.12
2023-05-11T04:00:48.865Z,52.25
2023-05-11T04:03:16.387Z,52.12
2023-05-11T04:05:43.614Z,51.91
2023-05-11T04:08:14.025Z,51.10
2023-05-11T04:10:43.220Z,50.45
2023-05-11T04:13:10.524Z,49.75
2023-05-11T04:15:37.795Z,49.69
2023-05-11T04:18:05.067Z,48.92
2023-05-11T04:20:32.573Z,48.99
2023-05-11T04:23:02.082Z,48.71
2023-05-11T04:25:34.173Z,48.04
2023-05-11T04:28:01.118Z,47.16
2023-05-11T04:30:28.338Z,46.66
2023-05-11T04:32:55.498Z,46.40
2023-05-11T04:35:22.514Z,45.65
2023-05-11T04:37:52.262Z,45.16
2023-05-11T04:40:20.167Z,44.59
2023-05-11T04:42:48.492Z,44.72
2023-05-11T04:45:20.030Z,44.11
2023-05-11T04:47:47.378Z,43.80
2023-05-11T04:50:14.753Z,43.67
2023-05-11T04:55:26.403Z,42.92
2023-05-11T04:57:55.069Z,42.87
2023-05-11T05:00:22.675Z,42.73
2023-05-11T05:02:51.057Z,42.61
2023-05-11T05:05:18.657Z,42.44
2023-05-11T05:07:46.276Z,42.45
2023-05-11T05:10:13.452Z,41.98
2023-05-11T05:13:01.636Z,41.90
2023-05-11T05:15:31.017Z,41.91
2023-05-11T05:18:01.961Z,41.90
2023-05-11T05:20:29.909Z,41.47
2023-05-11T05:23:00.449Z,41.03
2023-05-11T05:25:31.643Z,41.29
2023-05-11T05:28:03.539Z,40.99
2023-05-11T05:30:39.570Z,40.86
2023-05-11T05:33:11.604Z,40.37
2023-05-11T05:35:39.353Z,40.51
2023-05-11T05:38:10.508Z,40.40
2023-05-11T05:40:43.370Z,40.44
2023-05-11T05:43:11.536Z,40.41
2023-05-11T05:45:41.768Z,40.49
2023-05-11T05:48:16.123Z,40.28
2023-05-11T05:50:45.582Z,40.59
2023-05-11T05:53:16.511Z,40.91
2023-05-11T05:55:44.348Z,40.57
2023-05-11T05:58:12.771Z,40.75
2023-05-11T06:00:40.613Z,40.25
2023-05-11T06:03:16.814Z,40.19
2023-05-11T06:05:44.961Z,40.33
2023-05-11T06:08:33.773Z,39.74
2023-05-11T06:11:06.314Z,39.61
2023-05-11T06:13:33.473Z,39.33
2023-05-11T06:16:00.503Z,39.43
2023-05-11T06:18:32.753Z,38.81
2023-05-11T06:21:01.877Z,38.58
2023-05-11T06:23:31.299Z,38.32
2023-05-11T06:26:18.727Z,38.10
2023-05-11T06:28:52.180Z,37.64
2023-05-11T06:31:19.798Z,37.45
2023-05-11T06:33:49.279Z,37.20
2023-05-11T06:36:22.193Z,36.98
2023-05-11T06:38:49.311Z,36.57
2023-05-11T06:41:36.740Z,36.35
2023-05-11T06:44:04.290Z,36.34
2023-05-11T06:46:37.211Z,35.84
2023-05-11T06:49:24.123Z,35.34
2023-05-11T06:51:51.336Z,34.77
2023-05-11T06:54:18.664Z,34.82
2023-05-11T06:56:45.784Z,34.43
2023-05-11T06:59:12.985Z,33.72
2023-05-11T07:01:43.093Z,33.84
2023-05-11T07:04:10.221Z,32.81
2023-05-11T07:06:59.371Z,31.78
2023-05-11T07:09:27.701Z,31.50
2023-05-11T07:11:57.066Z,31.00
2023-05-11T07:14:27.199Z,31.24
2023-05-11T07:16:57.219Z,31.24
2023-05-11T07:19:24.372Z,30.84
2023-05-11T07:21:54.269Z,31.20
2023-05-11T07:24:21.311Z,30.91
2023-05-11T07:26:50.170Z,29.91
2023-05-11T07:29:20.016Z,29.98
2023-05-11T07:31:48.709Z,29.63
2023-05-11T07:34:17.244Z,29.42
2023-05-11T07:36:44.345Z,29.11
2023-05-11T07:39:16.279Z,29.11
2023-05-11T07:41:43.551Z,27.77
2023-05-11T07:44:10.637Z,27.24
2023-05-11T07:46:38.058Z,27.26
2023-05-11T07:49:15.851Z,28.10
2023-05-11T07:51:48.373Z,28.87
2023-05-11T07:54:15.832Z,28.75
2023-05-11T07:56:42.952Z,29.26
2023-05-11T07:59:12.343Z,28.69
2023-05-11T08:01:39.401Z,28.80
2023-05-11T08:04:27.324Z,28.93
2023-05-11T08:06:54.686Z,29.03
2023-05-11T08:09:40.881Z,28.81
2023-05-11T08:12:07.956Z,28.98
2023-05-11T08:14:36.076Z,27.87
2023-05-11T08:17:06.102Z,26.79
2023-05-11T08:19:33.109Z,27.04
2023-05-11T08:22:02.898Z,26.68
2023-05-11T08:24:30.037Z,26.18
2023-05-11T08:27:17.500Z,26.01
2023-05-11T08:29:44.972Z,25.67
2023-05-11T08:32:14.778Z,25.62
2023-05-11T08:34:41.935Z,25.19
2023-05-11T08:37:09.508Z,25.44
2023-05-11T08:39:46.555Z,25.81
2023-05-11T08:42:18.097Z,25.52
2023-05-11T08:44:45.737Z,26.10
2023-05-11T08:49:43.010Z,26.34
2023-05-11T08:52:11.358Z,25.26
2023-05-11T08:54:38.504Z,25.78
2023-05-11T08:57:07.333Z,25.71
2023-05-11T08:59:37.343Z,26.27
2023-05-11T09:02:05.268Z,27.14
2023-05-11T09:04:35.440Z,27.94
2023-05-11T09:07:02.525Z,28.84
2023-05-11T09:09:29.543Z,29.30
2023-05-11T09:11:56.830Z,30.08
2023-05-11T09:16:54.551Z,30.07
2023-05-11T09:19:22.539Z,30.16
2023-05-11T09:21:49.728Z,29.70
2023-05-11T09:24:17.132Z,28.65
2023-05-11T09:26:44.210Z,28.73
2023-05-11T09:29:15.647Z,28.10
2023-05-11T09:31:44.822Z,26.46
2023-05-11T09:34:20.275Z,26.13
2023-05-11T09:36:53.044Z,24.23
2023-05-11T09:39:45.360Z,23.26
2023-05-11T09:42:30.219Z,22.27
2023-05-11T09:44:57.891Z,21.34
2023-05-11T09:47:33.674Z,21.02
2023-05-11T09:50:18.745Z,22.05
2023-05-11T09:52:55.196Z,23.02
2023-05-11T09:55:31.370Z,23.35
2023-05-11T09:57:59.542Z,24.18
2023-05-11T10:00:26.856Z,24.27
2023-05-11T10:03:03.779Z,24.44
2023-05-11T10:05:35.264Z,25.25
2023-05-11T10:08:04.079Z,25.21
2023-05-11T10:10:35.208Z,23.84
2023-05-11T10:13:03.682Z,22.59
2023-05-11T10:15:32.579Z,22.23
2023-05-11T10:18:02.226Z,23.22
2023-05-11T10:20:29.309Z,24.95
2023-05-11T10:22:56.616Z,24.04
2023-05-11T10:25:26.888Z,25.05
2023-05-11T10:27:54.506Z,23.65
2023-05-11T10:30:21.937Z,23.91
2023-05-11T10:32:49.696Z,24.73
2023-05-11T10:35:16.914Z,26.80
2023-05-11T10:37:46.637Z,28.43
2023-05-11T10:40:14.128Z,28.91
2023-05-11T10:42:47.131Z,30.86
2023-05-11T10:45:49.897Z,32.37
2023-05-11T10:48:38.463Z,34.24
2023-05-11T10:51:46.282Z,36.33
2023-05-11T10:54:34.417Z,37.74
2023-05-11T10:57:07.755Z,38.93
2023-05-11T11:00:10.844Z,39.01
2023-05-11T11:02:38.195Z,40.20
2023-05-11T11:05:11.240Z,38.84
2023-05-11T11:07:58.951Z,40.16
2023-05-11T11:10:37.319Z,39.24
2023-05-11T11:13:11.978Z,39.33
2023-05-11T11:15:54.722Z,39.23
2023-05-11T11:18:36.192Z,41.21
2023-05-11T11:21:04.712Z,40.11
2023-05-11T11:23:51.194Z,38.47
2023-05-11T11:26:53.917Z,36.96
2023-05-11T11:29:33.513Z,33.65
2023-05-11T11:32:20.594Z,30.73
2023-05-11T11:34:48.338Z,29.52
2023-05-11T11:37:16.893Z,28.81
2023-05-11T11:39:43.896Z,27.41
2023-05-11T11:42:14.654Z,24.88
2023-05-11T11:44:42.975Z,23.17
2023-05-11T11:47:22.522Z,21.17
2023-05-11T11:49:51.870Z,21.50
2023-05-11T11:52:31.401Z,21.19
2023-05-11T11:55:02.619Z,20.98
2023-05-11T11:57:35.343Z,21.61
2023-05-11T12:00:07.041Z,23.09
2023-05-11T12:04:20.884Z,25.22
2023-05-11T12:07:21.453Z,27.27
2023-05-11T12:09:48.864Z,28.82
2023-05-11T12:12:17.983Z,29.35
2023-05-11T12:14:49.455Z,30.61
2023-05-11T12:17:29.538Z,33.05
2023-05-11T12:20:12.889Z,36.03
2023-05-11T12:22:40.204Z,36.31
2023-05-11T12:25:18.131Z,36.92
2023-05-11T12:28:15.813Z,38.83
2023-05-11T12:30:43.404Z,39.43
2023-05-11T12:33:15.218Z,40.25
2023-05-11T12:35:44.083Z,41.08
2023-05-11T12:38:11.909Z,41.87
2023-05-11T12:40:39.985Z,40.44
2023-05-11T12:43:07.114Z,39.30
2023-05-11T12:45:34.238Z,38.44
2023-05-11T12:48:17.029Z,34.11
2023-05-11T12:50:47.761Z,31.68
2023-05-11T12:53:16.879Z,28.88
2023-05-11T12:55:44.487Z,27.17
2023-05-11T12:58:16.702Z,26.11
2023-05-11T13:00:57.466Z,24.84
2023-05-11T13:03:26.333Z,23.84
2023-05-11T13:06:10.340Z,23.42
2023-05-11T13:08:38.317Z,23.71
2023-05-11T13:11:19.235Z,23.33
2023-05-11T13:13:46.384Z,22.85
2023-05-11T13:16:30.044Z,22.09
2023-05-11T13:19:03.897Z,20.40
2023-05-11T13:21:33.313Z,20.59
2023-05-11T13:24:02.202Z,20.03
2023-05-11T13:26:30.729Z,20.34
2023-05-11T13:29:09.523Z,20.71
2023-05-11T13:31:45.047Z,20.78
2023-05-11T13:34:12.215Z,20.92
2023-05-11T13:36:39.793Z,20.70
2023-05-11T13:39:07.106Z,19.74
2023-05-11T13:41:34.213Z,21.43
2023-05-11T13:44:01.369Z,22.74
2023-05-11T13:46:29.157Z,24.08
2023-05-11T13:48:56.275Z,25.91
2023-05-11T13:51:23.550Z,26.60
2023-05-11T13:53:50.662Z,26.86
2023-05-11T13:56:19.727Z,26.85
2023-05-11T13:58:46.980Z,25.69
2023-05-11T14:01:14.046Z,26.19
2023-05-11T14:03:41.297Z,27.56
2023-05-11T14:06:08.450Z,25.32
2023-05-11T14:08:35.475Z,23.02
2023-05-11T14:11:02.581Z,20.69
2023-05-11T14:13:29.718Z,20.58
2023-05-11T14:15:57.154Z,21.30
2023-05-11T14:18:26.908Z,21.48
2023-05-11T14:20:54.445Z,20.79
2023-05-11T14:23:21.677Z,20.02
2023-05-11T14:25:53.975Z,20.20
2023-05-11T14:28:21.104Z,22.98
2023-05-11T14:30:48.362Z,24.29
2023-05-11T14:33:21.539Z,25.03
2023-05-11T14:35:54.018Z,23.70
2023-05-11T14:38:21.163Z,23.30
2023-05-11T14:40:51.758Z,22.54
2023-05-11T14:43:20.002Z,22.47
2023-05-11T14:45:47.187Z,25.95
2023-05-11T14:48:14.656Z,25.24
2023-05-11T14:50:43.180Z,24.86
2023-05-11T14:53:10.336Z,24.38
2023-05-11T14:55:37.823Z,24.03
2023-05-11T14:58:07.892Z,24.18
2023-05-11T15:00:40.385Z,23.16
2023-05-11T15:03:08.386Z,23.41
2023-05-11T15:05:35.632Z,23.07
2023-05-11T15:08:02.864Z,23.64
2023-05-11T15:10:32.768Z,24.22
2023-05-11T15:12:59.801Z,23.97
2023-05-11T15:15:26.942Z,23.92
2023-05-11T15:17:54.366Z,24.19
2023-05-11T15:23:43.098Z,26.71
2023-05-11T15:26:10.581Z,27.68
2023-05-11T15:28:38.593Z,27.14
2023-05-11T15:31:05.815Z,26.46
2023-05-11T15:33:33.526Z,25.71
2023-05-11T15:36:00.667Z,26.01
2023-05-11T15:38:28.345Z,25.53
2023-05-11T15:40:55.995Z,25.61
2023-05-11T15:43:23.057Z,26.22
2023-05-11T15:45:50.456Z,28.56
2023-05-11T15:48:19.401Z,31.65
2023-05-11T15:50:48.311Z,33.71
2023-05-11T15:53:15.505Z,34.13
2023-05-11T15:55:46.962Z,35.26
2023-05-11T15:58:14.454Z,35.73
2023-05-11T16:00:41.881Z,36.23
2023-05-11T16:03:08.963Z,36.50
2023-05-11T16:05:37.693Z,37.13
2023-05-11T16:08:06.505Z,37.65
2023-05-11T16:10:34.576Z,38.27
2023-05-11T16:13:01.634Z,38.38
2023-05-11T16:15:31.361Z,38.55
2023-05-11T16:17:58.823Z,38.37
2023-05-11T16:20:27.654Z,38.42
2023-05-11T16:22:55.048Z,38.65
2023-05-11T16:25:23.019Z,39.00
2023-05-11T16:27:50.020Z,39.19
2023-05-11T16:30:24.296Z,39.59
2023-05-11T16:32:53.707Z,39.78
2023-05-11T16:35:49.531Z,40.09
2023-05-11T16:38:19.678Z,41.35
2023-05-11T16:40:54.238Z,41.53
2023-05-11T16:43:24.464Z,41.86
2023-05-11T16:45:56.976Z,42.06
2023-05-11T16:48:30.006Z,42.22
2023-05-11T16:51:08.314Z,42.54
2023-05-11T16:53:47.550Z,43.38
2023-05-11T16:56:16.024Z,43.93
2023-05-11T16:58:44.608Z,44.05
2023-05-11T17:01:12.837Z,44.27
2023-05-11T17:03:43.238Z,44.28
2023-05-11T17:06:13.793Z,44.66
2023-05-11T17:08:41.969Z,45.64
2023-05-11T17:11:12.263Z,46.44
2023-05-11T17:13:42.458Z,47.78
2023-05-11T17:16:29.048Z,48.12
2023-05-11T17:18:59.228Z,48.76
2023-05-11T17:21:26.464Z,48.44
2023-05-11T17:23:53.814Z,48.74
2023-05-11T17:26:25.040Z,48.91
2023-05-11T17:28:55.398Z,49.64
2023-05-11T17:31:22.794Z,49.77
2023-05-11T17:33:50.822Z,49.57
2023-05-11T17:36:23.370Z,49.73
2023-05-11T17:39:19.858Z,50.35
2023-05-11T17:42:15.227Z,50.46
2023-05-11T17:45:03.126Z,51.01
2023-05-11T17:47:37.180Z,51.91
2023-05-11T17:50:11.274Z,52.61
2023-05-11T17:52:39.826Z,53.20
2023-05-11T17:55:19.035Z,53.58
2023-05-11T17:57:50.019Z,54.11
2023-05-11T18:00:41.320Z,54.12
2023-05-11T18:03:13.304Z,53.87
2023-05-11T18:08:18.430Z,54.74
2023-05-11T18:11:00.722Z,55.11
2023-05-11T18:13:37.109Z,55.66
2023-05-11T18:16:09.674Z,55.62
2023-05-11T18:19:09.301Z,55.66
2023-05-11T18:21:38.040Z,56.05
2023-05-11T18:24:06.629Z,56.24
2023-05-11T18:26:36.013Z,56.52
2023-05-11T18:29:04.627Z,56.44
2023-05-11T18:31:44.302Z,56.55
2023-05-11T18:34:17.920Z,56.50
2023-05-11T18:36:49.076Z,56.87
2023-05-11T18:39:21.667Z,57.09
2023-05-11T18:41:49.271Z,57.45
2023-05-11T18:44:21.441Z,57.87
2023-05-11T18:46:48.674Z,58.04
2023-05-11T18:49:15.746Z,57.99
2023-05-11T18:51:46.941Z,58.03
2023-05-11T18:54:19.783Z,58.26
2023-05-11T18:56:47.804Z,58.71
2023-05-11T18:59:14.956Z,58.89
2023-05-11T19:01:47.906Z,58.87
2023-05-11T19:04:17.798Z,59.12
2023-05-11T19:06:45.938Z,59.03
2023-05-11T19:09:17.598Z,59.46
2023-05-11T19:11:50.122Z,59.48
2023-05-11T19:14:17.413Z,59.65
2023-05-11T19:16:47.512Z,59.80
2023-05-11T19:19:17.031Z,60.15
2023-05-11T19:21:45.633Z,60.19
2023-05-11T19:24:16.123Z,60.43
2023-05-11T19:27:02.563Z,60.70
2023-05-11T19:29:38.405Z,60.74
2023-05-11T19:32:06.813Z,60.84
2023-05-11T19:34:34.263Z,60.96
2023-05-11T19:37:05.073Z,61.15
2023-05-11T19:39:32.338Z,61.15
2023-05-11T19:42:01.514Z,61.24
2023-05-11T19:44:33.136Z,61.37
2023-05-11T19:47:00.442Z,61.53
2023-05-11T19:49:28.832Z,61.54
2023-05-11T19:51:59.100Z,61.66
2023-05-11T19:54:29.568Z,61.40
2023-05-11T19:56:57.525Z,61.47
2023-05-11T19:59:27.535Z,61.55
2023-05-11T20:01:55.767Z,61.29
2023-05-11T20:04:23.239Z,61.31
2023-05-11T20:06:50.574Z,61.70
2023-05-11T20:09:36.408Z,61.72
2023-05-11T20:12:03.528Z,62.05
2023-05-11T20:14:30.861Z,62.41
2023-05-11T20:16:57.966Z,62.59
2023-05-11T20:19:25.056Z,62.62
2023-05-11T20:21:52.869Z,62.73
2023-05-11T20:24:21.518Z,62.69
2023-05-11T20:26:49.120Z,63.16
2023-05-11T20:29:35.776Z,63.19
2023-05-11T20:32:06.111Z,63.28
2023-05-11T20:34:51.969Z,63.36
2023-05-11T20:37:38.365Z,63.02
2023-05-11T20:40:06.753Z,62.88
2023-05-11T20:42:34.165Z,62.72
2023-05-11T20:52:01.488Z,61.66
2023-05-11T20:54:29.666Z,61.75
2023-05-11T20:56:59.897Z,61.55
2023-05-11T21:02:00.474Z,62.15
2023-05-11T21:04:31.256Z,62.11
2023-05-11T21:06:58.475Z,61.96
2023-05-11T21:09:28.110Z,62.05
2023-05-11T21:11:55.208Z,62.18
2023-05-11T21:14:22.790Z,62.24
2023-05-11T21:16:49.967Z,61.96
2023-05-11T21:19:18.535Z,61.89
2023-05-11T21:21:45.885Z,62.02
2023-05-11T21:24:14.197Z,62.07
2023-05-11T21:26:41.502Z,61.88
2023-05-11T21:29:08.730Z,62.04
2023-05-11T21:31:36.411Z,62.57
2023-05-11T21:34:03.589Z,62.62
2023-05-11T21:36:31.116Z,63.11
2023-05-11T21:38:58.300Z,62.69
2023-05-11T21:41:25.423Z,62.92
2023-05-11T21:43:55.043Z,63.16
2023-05-11T21:46:22.154Z,63.93
2023-05-11T21:48:49.214Z,64.24
2023-05-11T21:51:16.175Z,64.18
2023-05-11T21:53:43.268Z,64.03
2023-05-11T21:56:10.259Z,63.63
2023-05-11T21:58:38.761Z,63.38
2023-05-11T22:01:05.787Z,63.28
2023-05-11T22:03:33.016Z,63.39
2023-05-11T22:06:00.192Z,62.95
2023-05-11T22:08:27.160Z,63.18
2023-05-11T22:10:54.307Z,62.99
2023-05-11T22:13:22.066Z,63.02
2023-05-11T22:15:49.048Z,63.03
2023-05-11T22:18:16.073Z,62.90
2023-05-11T22:20:43.230Z,62.41
2023-05-11T22:23:10.286Z,62.51
2023-05-11T22:25:37.295Z,62.73
2023-05-11T22:28:05.015Z,62.71
2023-05-11T22:30:31.941Z,63.11
2023-05-11T22:32:59.287Z,63.67
2023-05-11T22:35:26.654Z,64.47
2023-05-11T22:37:54.322Z,64.14
2023-05-11T22:40:29.989Z,64.85
2023-05-11T22:42:57.112Z,64.95
2023-05-11T22:45:24.086Z,65.00
2023-05-11T22:47:51.554Z,65.44
2023-05-11T22:50:18.805Z,65.61
2023-05-11T22:52:47.362Z,65.78
2023-05-11T22:55:14.673Z,65.41
2023-05-11T22:57:42.025Z,65.42
2023-05-11T23:00:12.243Z,65.87
2023-05-11T23:02:39.655Z,65.75
2023-05-11T23:05:07.386Z,65.78
2023-05-11T23:07:34.471Z,65.70
2023-05-11T23:10:04.374Z,65.96
2023-05-11T23:12:34.391Z,65.85
2023-05-11T23:15:01.937Z,65.77
2023-05-11T23:17:33.336Z,65.95
2023-05-11T23:20:04.480Z,66.29
2023-05-11T23:22:32.213Z,66.15
2023-05-11T23:25:00.585Z,66.27
2023-05-11T23:27:28.675Z,66.67
2023-05-11T23:29:55.626Z,67.46
2023-05-11T23:32:22.704Z,67.23
2023-05-11T23:34:49.830Z,67.11
2023-05-11T23:37:17.015Z,67.54
2023-05-11T23:39:44.181Z,68.10
2023-05-11T23:42:13.767Z,68.29
2023-05-11T23:44:40.855Z,67.78
2023-05-11T23:47:07.913Z,67.55
2023-05-11T23:49:35.051Z,67.88
2023-05-11T23:52:02.067Z,67.98
2023-05-11T23:54:29.135Z,68.21
2023-05-11T23:56:56.228Z,68.03
2023-05-11T23:59:23.375Z,67.65
